Главная страница
METAR-TAF:

METAR-TAF

Аэропорты :

Стур, Норвегия

широта: 59-48N, долгота: 005-21E, высота над уровнем моря: 49 м

Текущие метеонаблюдения

Эта сводка был подготовлена 34 минут назад, в 20:50 UTC
Ветер 16 Узел от юго-юго-восточный
Температура 11°C
Влажность 71%
Давление 1022 hPa
Видимость 10 км и более
Отдельные облака на высоте 2700 фута
Рассеянная облачность на высоте 3800 фута

METAR: ENSO 152050Z 15016KT 9999 SCT027 BKN038 11/06 Q1022

Время: 22:24 (21:24 UTC)

Прогноз

Эта сводка был подготовлена 4 часа и 24 минут назад, в 17:00 UTC
Прогноз действительный с 15-го 18 UTC до 15-го 21 UTC
Ветер 15 Узел от юго-юго-восточный
Видимость 10 км и более
Отдельные облака на высоте 4000 фута

TAF: ENSO 151700Z 1518/1521 16015KT 9999 SCT040

Метеонаблюдения и прогнозы для более 4000 аэропортов (сводки METAR и TAF).

Имеющиеся станции представлены на карте желтыми и красными точками.

Чтобы увидеть название станции, наведите на нее мышь.

Затем щелкните, чтобы увидеть метеонаблюдения и метеопрогнозы.

Управление картой: чтобы увеличить масштаб, щелкните зеленые кнопки с черным крестиком; чтобы уменьшить масштаб, щелкните зеленую кнопку с тире; для просмотра соседних карт щелкайте зеленые стрелки.


METAR-TAF: